»·PEaware :: UAL320 KSAN-KSEA

UAL320 :: KSAN-KSEA

FLIGHT INFORMATION

Flight Status: Arrived
Operator:
United Airlines
More flights by this operator :: More flights under this callsign
Pilot: Sergei F. (8485)
Aircraft: BOEING 737-200
(B732)
More flights by this aircraft type
Origin: KSAN San Diego Intl-Lindbergh
United States
Destination: KSEA Seattle-Tacoma Intl
United States
More flights between these airports :: More routes between these airports
Route: +PEBLE7 SLI J78 LAX J5 LKV J67 BTG OLM2
File this flight plan on PilotEdge
Remarks:
Altitude:
(Current/Filed)
30,000ft
Speed:
(Current/Filed)
360kts
Departed: 06-Oct-18 06:13 PM
Arrived: 06-Oct-18 09:05 PM
Distance/Time
Traveled:
913nm/2:52
Distance/Time
To Go:
Arrived

Flight Plot

Page will automatically refresh every two minutes.

Flight plan parsing failed; only flown route is shown


Map Options




Map Legend


Flown Route
Filed Route
Departure Airport
Arrival Airport
Navaid (VOR, NDB)
Fix

Horizontal Profiles

Position Reports

Time Latitude Longitude Heading Altitude Ground
Speed
06-Oct-18 17:44 32.734129 -117.200795 209 25ft 0kts
06-Oct-18 17:45 32.734129 -117.200795 209 25ft 0kts
06-Oct-18 17:46 32.734129 -117.200795 209 25ft 0kts
06-Oct-18 17:47 32.734129 -117.200795 209 25ft 0kts
06-Oct-18 17:48 32.734129 -117.200795 209 25ft 0kts
06-Oct-18 17:49 32.734129 -117.200795 209 25ft 0kts
06-Oct-18 17:50 32.734129 -117.200795 209 25ft 0kts
06-Oct-18 17:51 32.734129 -117.200795 209 25ft 0kts
06-Oct-18 17:52 32.734129 -117.200795 209 25ft 0kts
06-Oct-18 17:53 32.734129 -117.200795 209 25ft 0kts
06-Oct-18 17:54 32.734129 -117.200795 209 25ft 0kts
06-Oct-18 17:55 32.734129 -117.200795 209 25ft 0kts
06-Oct-18 17:56 32.734129 -117.200795 209 25ft 0kts
06-Oct-18 17:57 32.734129 -117.200795 209 25ft 0kts
06-Oct-18 17:58 32.734129 -117.200795 209 25ft 0kts
06-Oct-18 17:59 32.734129 -117.200795 209 25ft 0kts
06-Oct-18 18:00 32.734129 -117.200795 209 25ft 0kts
06-Oct-18 18:01 32.734129 -117.200795 209 25ft 0kts
06-Oct-18 18:02 32.734129 -117.200795 209 25ft 0kts
06-Oct-18 18:03 32.734129 -117.200795 209 25ft 0kts
06-Oct-18 18:04 32.734381 -117.200625 209 25ft 2kts
06-Oct-18 18:05 32.734886 -117.200441 167 24ft 2kts
06-Oct-18 18:06 32.735232 -117.200837 106 24ft 0kts
06-Oct-18 18:07 32.735232 -117.200836 106 24ft 0kts
06-Oct-18 18:08 32.735158 -117.200536 106 24ft 6kts
06-Oct-18 18:09 32.734244 -117.196762 106 26ft 13kts
06-Oct-18 18:10 32.732875 -117.191122 106 25ft 20kts
06-Oct-18 18:11 32.731265 -117.184444 106 22ft 21kts
06-Oct-18 18:12 32.729721 -117.178121 106 23ft 11kts
06-Oct-18 18:13 32.729482 -117.176782 70 22ft 0kts
06-Oct-18 18:14 32.730222 -117.175896 286 25ft 3kts
06-Oct-18 18:15 32.735824 -117.198809 286 192ft 166kts
06-Oct-18 18:16 32.763530 -117.245576 305 2350ft 202kts
06-Oct-18 18:17 32.796793 -117.295548 304 5043ft 194kts
06-Oct-18 18:18 32.832317 -117.347495 304 6947ft 225kts
06-Oct-18 18:19 32.870500 -117.404465 305 9692ft 220kts
06-Oct-18 18:20 32.906949 -117.462308 305 12075ft 220kts
06-Oct-18 18:21 32.953259 -117.510257 316 14094ft 225kts
06-Oct-18 18:22 32.997424 -117.563634 311 15818ft 227kts
06-Oct-18 18:23 33.040247 -117.623440 309 17144ft 242kts
06-Oct-18 18:24 33.083076 -117.687905 307 18432ft 254kts
06-Oct-18 18:25 33.126256 -117.753735 308 19854ft 256kts
06-Oct-18 18:26 33.170736 -117.820549 309 21165ft 259kts
06-Oct-18 18:27 33.237655 -117.854678 336 22311ft 270kts
06-Oct-18 18:28 33.309751 -117.881469 337 23306ft 276kts
06-Oct-18 18:29 33.387143 -117.909875 337 23463ft 305kts
06-Oct-18 18:30 33.469363 -117.939829 337 24122ft 313kts
06-Oct-18 18:31 33.552525 -117.970202 337 24875ft 315kts
06-Oct-18 18:32 33.636634 -118.000972 337 25541ft 317kts
06-Oct-18 18:33 33.721070 -118.032525 337 25842ft 327kts
06-Oct-18 18:34 33.803269 -118.078016 306 25848ft 332kts
06-Oct-18 18:35 33.836660 -118.183659 297 25837ft 345kts
06-Oct-18 18:36 33.877467 -118.288788 297 25829ft 354kts
06-Oct-18 18:37 33.919754 -118.396434 298 25829ft 360kts
06-Oct-18 18:38 34.003930 -118.447823 352 25844ft 380kts
06-Oct-18 18:39 34.106807 -118.461546 346 25831ft 378kts
06-Oct-18 18:40 34.206167 -118.477619 346 25836ft 382kts
06-Oct-18 18:41 34.311530 -118.495455 346 25845ft 385kts
06-Oct-18 18:42 34.417479 -118.513512 346 25866ft 386kts
06-Oct-18 18:43 34.523844 -118.531737 346 25863ft 388kts
06-Oct-18 18:44 34.630694 -118.550103 346 25850ft 389kts
06-Oct-18 18:45 34.737286 -118.568480 346 25830ft 390kts
06-Oct-18 18:46 34.844298 -118.586981 346 25883ft 388kts
06-Oct-18 18:47 34.950096 -118.607195 345 25904ft 388kts
06-Oct-18 18:48 35.046904 -118.651518 321 25916ft 383kts
06-Oct-18 18:49 35.127804 -118.732892 320 25898ft 388kts
06-Oct-18 18:50 35.211388 -118.817375 320 25843ft 394kts
06-Oct-18 18:51 35.295540 -118.903229 320 25841ft 394kts
06-Oct-18 18:52 35.379117 -118.989283 320 25839ft 391kts
06-Oct-18 18:53 35.460239 -119.076361 320 25834ft 386kts
06-Oct-18 18:54 35.560739 -119.106148 349 25827ft 384kts
06-Oct-18 18:55 35.665988 -119.120370 349 25830ft 381kts
06-Oct-18 18:56 35.770375 -119.134058 349 25828ft 378kts
06-Oct-18 18:57 35.874317 -119.147602 349 25826ft 376kts
06-Oct-18 18:58 35.977991 -119.161146 349 25824ft 374kts
06-Oct-18 18:59 36.081500 -119.174678 349 25825ft 373kts
06-Oct-18 19:00 36.182079 -119.187785 349 25849ft 373kts
06-Oct-18 19:01 36.285281 -119.201355 349 25846ft 374kts
06-Oct-18 19:02 36.388571 -119.214935 349 25845ft 374kts
06-Oct-18 19:03 36.491699 -119.228559 349 25842ft 374kts
06-Oct-18 19:04 36.595403 -119.242317 349 25840ft 374kts
06-Oct-18 19:05 36.698729 -119.256055 349 25838ft 374kts
06-Oct-18 19:06 36.801600 -119.269745 349 25836ft 373kts
06-Oct-18 19:07 36.887479 -119.281242 349 25835ft 373kts
06-Oct-18 19:08 37.007057 -119.297301 350 25832ft 372kts
06-Oct-18 19:09 37.093052 -119.308901 352 25830ft 371kts
06-Oct-18 19:10 37.193479 -119.322190 352 25917ft 371kts
06-Oct-18 19:11 37.312398 -119.338239 352 26015ft 370kts
06-Oct-18 19:12 37.397842 -119.349777 353 26003ft 372kts
06-Oct-18 19:13 37.518052 -119.366256 352 26015ft 372kts
06-Oct-18 19:14 37.602697 -119.381450 348 26053ft 371kts
06-Oct-18 19:15 37.703376 -119.408673 350 26058ft 371kts
06-Oct-18 19:16 37.805415 -119.425322 354 26076ft 372kts
06-Oct-18 19:17 37.908518 -119.439347 354 26074ft 373kts
06-Oct-18 19:18 38.011624 -119.452877 354 26072ft 374kts
06-Oct-18 19:19 38.113262 -119.466153 355 26081ft 374kts
06-Oct-18 19:20 38.217099 -119.479584 354 26066ft 377kts
06-Oct-18 19:21 38.321511 -119.493315 354 26061ft 379kts
06-Oct-18 19:22 38.426503 -119.507154 354 26062ft 380kts
06-Oct-18 19:23 38.531763 -119.521092 354 26063ft 381kts
06-Oct-18 19:24 38.636831 -119.535049 354 26061ft 381kts
06-Oct-18 19:25 38.741789 -119.549012 354 26059ft 381kts
06-Oct-18 19:26 38.846511 -119.562943 354 26057ft 381kts
06-Oct-18 19:27 38.951334 -119.576937 355 26055ft 380kts
06-Oct-18 19:28 39.056209 -119.590992 355 26053ft 380kts
06-Oct-18 19:29 39.158583 -119.604759 355 26082ft 379kts
06-Oct-18 19:30 39.262903 -119.618828 355 26087ft 380kts
06-Oct-18 19:31 39.366955 -119.632900 355 26084ft 380kts
06-Oct-18 19:32 39.472059 -119.647156 355 26082ft 381kts
06-Oct-18 19:33 39.574007 -119.675614 347 26082ft 382kts
06-Oct-18 19:34 39.677041 -119.707684 349 26085ft 381kts
06-Oct-18 19:35 39.779997 -119.734561 350 26085ft 380kts
06-Oct-18 19:36 39.883294 -119.760791 350 26084ft 380kts
06-Oct-18 19:37 39.986486 -119.786857 351 26081ft 379kts
06-Oct-18 19:38 40.089835 -119.811634 349 26079ft 378kts
06-Oct-18 19:39 40.190571 -119.839809 349 26098ft 380kts
06-Oct-18 19:40 40.293856 -119.868820 349 26098ft 381kts
06-Oct-18 19:41 40.397578 -119.898064 349 26100ft 382kts
06-Oct-18 19:42 40.501315 -119.927405 349 26100ft 382kts
06-Oct-18 19:43 40.604862 -119.956796 349 26098ft 382kts
06-Oct-18 19:44 40.708373 -119.986268 349 26096ft 381kts
06-Oct-18 19:45 40.811581 -120.015739 349 26094ft 381kts
06-Oct-18 19:46 40.914916 -120.045386 349 26092ft 380kts
06-Oct-18 19:47 41.017682 -120.074950 349 26090ft 379kts
06-Oct-18 19:48 41.118050 -120.103861 350 26107ft 378kts
06-Oct-18 19:49 41.221001 -120.133297 350 26107ft 379kts
06-Oct-18 19:50 41.323256 -120.163033 350 26105ft 379kts
06-Oct-18 19:51 41.427022 -120.187594 353 26102ft 378kts
06-Oct-18 19:52 41.531162 -120.208071 349 26097ft 379kts
06-Oct-18 19:53 41.633328 -120.240914 349 26098ft 379kts
06-Oct-18 19:54 41.735749 -120.272486 349 26096ft 378kts
06-Oct-18 19:55 41.838106 -120.303887 350 26100ft 378kts
06-Oct-18 19:56 41.940416 -120.335313 349 26109ft 376kts
06-Oct-18 19:57 42.041800 -120.366487 349 26107ft 376kts
06-Oct-18 19:58 42.142896 -120.397559 350 26127ft 375kts
06-Oct-18 19:59 42.244672 -120.428952 349 26125ft 377kts
06-Oct-18 20:00 42.347169 -120.460845 349 26123ft 378kts
06-Oct-18 20:01 42.449650 -120.491664 346 26114ft 380kts
06-Oct-18 20:02 42.546504 -120.550877 340 26118ft 383kts
06-Oct-18 20:03 42.643255 -120.609880 340 26116ft 383kts
06-Oct-18 20:04 42.740018 -120.668974 340 26114ft 382kts
06-Oct-18 20:05 42.836959 -120.727784 341 26111ft 380kts
06-Oct-18 20:06 42.933980 -120.783921 341 26109ft 379kts
06-Oct-18 20:07 43.030989 -120.839832 341 26107ft 377kts
06-Oct-18 20:08 43.125885 -120.894262 341 26173ft 374kts
06-Oct-18 20:09 43.221614 -120.949277 341 26225ft 375kts
06-Oct-18 20:10 43.317736 -121.004327 341 26224ft 376kts
06-Oct-18 20:11 43.414036 -121.059030 341 26222ft 375kts
06-Oct-18 20:12 43.510443 -121.113237 341 26219ft 375kts
06-Oct-18 20:13 43.606047 -121.170363 332 26213ft 379kts
06-Oct-18 20:14 43.694685 -121.247422 339 26220ft 373kts
06-Oct-18 20:15 43.788624 -121.307212 339 26212ft 372kts
06-Oct-18 20:16 43.881623 -121.366183 339 26210ft 371kts
06-Oct-18 20:17 43.975131 -121.425608 339 26207ft 370kts
06-Oct-18 20:18 44.068364 -121.485043 339 26214ft 368kts
06-Oct-18 20:19 44.160528 -121.544142 339 26236ft 369kts
06-Oct-18 20:20 44.251385 -121.611428 336 26231ft 372kts
06-Oct-18 20:21 44.342552 -121.678599 339 26232ft 371kts
06-Oct-18 20:22 44.436277 -121.738031 339 26219ft 372kts
06-Oct-18 20:23 44.529883 -121.797493 339 26210ft 372kts
06-Oct-18 20:24 44.623891 -121.857438 339 26207ft 372kts
06-Oct-18 20:25 44.717843 -121.917561 339 26223ft 371kts
06-Oct-18 20:26 44.811606 -121.977776 339 26249ft 370kts
06-Oct-18 20:27 44.904698 -122.037769 339 26248ft 369kts
06-Oct-18 20:28 44.994299 -122.095753 339 26244ft 369kts
06-Oct-18 20:29 45.087133 -122.156065 338 26242ft 368kts
06-Oct-18 20:30 45.179760 -122.215699 338 26265ft 368kts
06-Oct-18 20:31 45.272809 -122.276318 338 26261ft 370kts
06-Oct-18 20:32 45.366135 -122.337530 338 26258ft 370kts
06-Oct-18 20:33 45.459008 -122.398704 338 26256ft 370kts
06-Oct-18 20:34 45.551813 -122.460070 338 26254ft 370kts
06-Oct-18 20:35 45.645114 -122.521878 338 26251ft 369kts
06-Oct-18 20:36 45.738431 -122.582594 339 26248ft 368kts
06-Oct-18 20:37 45.837126 -122.616866 351 26246ft 366kts
06-Oct-18 20:38 45.936895 -122.638501 350 26244ft 365kts
06-Oct-18 20:39 46.036501 -122.664779 349 26256ft 364kts
06-Oct-18 20:40 46.134963 -122.690694 349 26284ft 364kts
06-Oct-18 20:41 46.234908 -122.716349 349 26282ft 366kts
06-Oct-18 20:42 46.331826 -122.741288 349 25631ft 351kts
06-Oct-18 20:43 46.427989 -122.766168 349 24026ft 349kts
06-Oct-18 20:44 46.523368 -122.784060 353 22628ft 347kts
06-Oct-18 20:45 46.618655 -122.798124 353 20837ft 344kts
06-Oct-18 20:46 46.711816 -122.820945 347 18858ft 341kts
06-Oct-18 20:47 46.803521 -122.849875 348 17115ft 336kts
06-Oct-18 20:48 46.892381 -122.878322 347 15993ft 321kts
06-Oct-18 20:49 46.977441 -122.881796 13 15993ft 308kts
06-Oct-18 20:50 47.044879 -122.804942 43 15252ft 318kts
06-Oct-18 20:51 47.109494 -122.724213 35 14325ft 302kts
06-Oct-18 20:52 47.172171 -122.645455 37 13302ft 294kts
06-Oct-18 20:53 47.232413 -122.568285 38 12393ft 281kts
06-Oct-18 20:54 47.290573 -122.493288 38 11254ft 276kts
06-Oct-18 20:55 47.361449 -122.472140 358 9916ft 260kts
06-Oct-18 20:56 47.431522 -122.474841 358 8851ft 246kts
06-Oct-18 20:57 47.498737 -122.478009 358 7741ft 239kts
06-Oct-18 20:58 47.563913 -122.481469 358 6702ft 231kts
06-Oct-18 20:59 47.627086 -122.485026 358 5673ft 227kts
06-Oct-18 21:00 47.688685 -122.482970 30 4674ft 220kts
06-Oct-18 21:01 47.698114 -122.403769 95 3973ft 205kts
06-Oct-18 21:02 47.662180 -122.344076 145 3385ft 205kts
06-Oct-18 21:03 47.612446 -122.308612 175 2609ft 203kts
06-Oct-18 21:04 47.556900 -122.311664 179 2137ft 192kts
06-Oct-18 21:05 47.508148 -122.310408 181 1355ft 166kts
06-Oct-18 21:06 47.468410 -122.311009 179 546ft 136kts
06-Oct-18 21:07 47.448158 -122.310585 156 402ft 18kts
06-Oct-18 21:08 47.446051 -122.308581 119 394ft 10kts
06-Oct-18 21:09 47.446960 -122.306298 1 398ft 8kts
06-Oct-18 21:10 47.447884 -122.304555 122 401ft 8kts
06-Oct-18 21:11 47.447413 -122.302610 40 398ft 4kts
06-Oct-18 21:12 47.447650 -122.302320 39 398ft 0kts
06-Oct-18 21:13 47.447650 -122.302320 39 398ft 0kts

Navigation Log

Ident Type
Flight plan parsing failed, navigation log unavailable